sensor_id;sensor_type;location;lat;lon;timestamp;temperature;humidity
23114;DHT22;11726;50.122;8.832;2022-07-09T00:01:02;18.90;99.90
23114;DHT22;11726;50.122;8.832;2022-07-09T00:03:29;18.80;99.90
23114;DHT22;11726;50.122;8.832;2022-07-09T00:05:56;18.90;99.90
23114;DHT22;11726;50.122;8.832;2022-07-09T00:08:23;18.90;99.90
23114;DHT22;11726;50.122;8.832;2022-07-09T00:10:49;18.90;99.90
23114;DHT22;11726;50.122;8.832;2022-07-09T00:13:16;18.90;99.90
23114;DHT22;11726;50.122;8.832;2022-07-09T00:15:43;18.90;99.90
23114;DHT22;11726;50.122;8.832;2022-07-09T00:18:10;18.90;99.90
23114;DHT22;11726;50.122;8.832;2022-07-09T00:20:37;18.90;99.90
23114;DHT22;11726;50.122;8.832;2022-07-09T00:23:03;18.70;99.90
23114;DHT22;11726;50.122;8.832;2022-07-09T00:25:30;18.60;99.90
23114;DHT22;11726;50.122;8.832;2022-07-09T00:27:56;18.50;99.90
23114;DHT22;11726;50.122;8.832;2022-07-09T00:30:23;18.50;99.90
23114;DHT22;11726;50.122;8.832;2022-07-09T00:32:50;18.50;99.90
23114;DHT22;11726;50.122;8.832;2022-07-09T00:35:16;18.40;99.90
23114;DHT22;11726;50.122;8.832;2022-07-09T00:37:43;18.30;99.90
23114;DHT22;11726;50.122;8.832;2022-07-09T00:40:10;18.30;99.90
23114;DHT22;11726;50.122;8.832;2022-07-09T00:42:37;18.00;99.90
23114;DHT22;11726;50.122;8.832;2022-07-09T00:45:04;18.00;99.90
23114;DHT22;11726;50.122;8.832;2022-07-09T00:47:31;17.90;99.90
23114;DHT22;11726;50.122;8.832;2022-07-09T00:49:57;18.10;99.90
23114;DHT22;11726;50.122;8.832;2022-07-09T00:52:24;18.10;99.90
23114;DHT22;11726;50.122;8.832;2022-07-09T00:54:51;17.90;99.90
23114;DHT22;11726;50.122;8.832;2022-07-09T00:57:18;17.80;99.90
23114;DHT22;11726;50.122;8.832;2022-07-09T00:59:46;17.80;99.90
23114;DHT22;11726;50.122;8.832;2022-07-09T01:02:13;17.80;99.90
23114;DHT22;11726;50.122;8.832;2022-07-09T01:04:39;17.70;99.90
23114;DHT22;11726;50.122;8.832;2022-07-09T01:07:06;17.80;99.90
23114;DHT22;11726;50.122;8.832;2022-07-09T01:09:33;17.80;99.90
23114;DHT22;11726;50.122;8.832;2022-07-09T01:12:01;17.70;99.90
23114;DHT22;11726;50.122;8.832;2022-07-09T01:14:28;17.70;99.90
23114;DHT22;11726;50.122;8.832;2022-07-09T01:17:02;17.60;99.90
23114;DHT22;11726;50.122;8.832;2022-07-09T01:19:30;17.50;99.90
23114;DHT22;11726;50.122;8.832;2022-07-09T01:21:57;17.30;99.90
23114;DHT22;11726;50.122;8.832;2022-07-09T01:24:31;17.30;99.90
23114;DHT22;11726;50.122;8.832;2022-07-09T01:26:57;17.20;99.90
23114;DHT22;11726;50.122;8.832;2022-07-09T01:29:24;17.20;99.90
23114;DHT22;11726;50.122;8.832;2022-07-09T01:31:51;17.10;99.90
23114;DHT22;11726;50.122;8.832;2022-07-09T01:34:17;17.10;99.90
23114;DHT22;11726;50.122;8.832;2022-07-09T01:36:44;17.00;99.90
23114;DHT22;11726;50.122;8.832;2022-07-09T01:39:11;17.10;99.90
23114;DHT22;11726;50.122;8.832;2022-07-09T01:41:37;17.00;99.90
23114;DHT22;11726;50.122;8.832;2022-07-09T01:44:04;17.10;99.90
23114;DHT22;11726;50.122;8.832;2022-07-09T01:46:30;17.10;99.90
23114;DHT22;11726;50.122;8.832;2022-07-09T01:48:57;17.10;99.90
23114;DHT22;11726;50.122;8.832;2022-07-09T01:51:24;16.70;99.90
23114;DHT22;11726;50.122;8.832;2022-07-09T01:53:51;16.70;99.90
23114;DHT22;11726;50.122;8.832;2022-07-09T01:56:17;16.80;99.90
23114;DHT22;11726;50.122;8.832;2022-07-09T01:58:44;16.90;99.90
23114;DHT22;11726;50.122;8.832;2022-07-09T02:01:11;16.90;99.90
23114;DHT22;11726;50.122;8.832;2022-07-09T02:03:38;17.00;99.90
23114;DHT22;11726;50.122;8.832;2022-07-09T02:06:05;17.00;99.90
23114;DHT22;11726;50.122;8.832;2022-07-09T02:08:32;17.00;99.90
23114;DHT22;11726;50.122;8.832;2022-07-09T02:10:59;17.00;99.90
23114;DHT22;11726;50.122;8.832;2022-07-09T02:13:25;16.90;99.90
23114;DHT22;11726;50.122;8.832;2022-07-09T02:15:52;17.00;99.90
23114;DHT22;11726;50.122;8.832;2022-07-09T02:18:19;16.80;99.90
23114;DHT22;11726;50.122;8.832;2022-07-09T02:20:46;16.70;99.90
23114;DHT22;11726;50.122;8.832;2022-07-09T02:23:12;16.80;99.90
23114;DHT22;11726;50.122;8.832;2022-07-09T02:25:39;16.80;99.90
23114;DHT22;11726;50.122;8.832;2022-07-09T02:28:06;16.80;99.90
23114;DHT22;11726;50.122;8.832;2022-07-09T02:30:32;16.80;99.90
23114;DHT22;11726;50.122;8.832;2022-07-09T02:33:00;16.90;99.90
23114;DHT22;11726;50.122;8.832;2022-07-09T02:35:27;16.90;99.90
23114;DHT22;11726;50.122;8.832;2022-07-09T02:37:53;16.80;99.90
23114;DHT22;11726;50.122;8.832;2022-07-09T02:40:20;16.70;99.90
23114;DHT22;11726;50.122;8.832;2022-07-09T02:42:47;16.70;99.90
23114;DHT22;11726;50.122;8.832;2022-07-09T02:45:13;16.60;99.90
23114;DHT22;11726;50.122;8.832;2022-07-09T02:47:40;16.50;99.90
23114;DHT22;11726;50.122;8.832;2022-07-09T02:50:07;16.70;99.90
23114;DHT22;11726;50.122;8.832;2022-07-09T02:52:33;16.60;99.90
23114;DHT22;11726;50.122;8.832;2022-07-09T02:55:00;16.60;99.90
23114;DHT22;11726;50.122;8.832;2022-07-09T02:57:27;16.60;99.90
23114;DHT22;11726;50.122;8.832;2022-07-09T02:59:53;16.40;99.90
23114;DHT22;11726;50.122;8.832;2022-07-09T03:02:20;16.30;99.90
23114;DHT22;11726;50.122;8.832;2022-07-09T03:04:46;16.30;99.90
23114;DHT22;11726;50.122;8.832;2022-07-09T03:07:13;16.30;99.90
23114;DHT22;11726;50.122;8.832;2022-07-09T03:09:40;16.30;99.90
23114;DHT22;11726;50.122;8.832;2022-07-09T03:12:07;16.30;99.90
23114;DHT22;11726;50.122;8.832;2022-07-09T03:14:34;16.20;99.90
23114;DHT22;11726;50.122;8.832;2022-07-09T03:17:00;16.20;99.90
23114;DHT22;11726;50.122;8.832;2022-07-09T03:19:27;16.10;99.90
23114;DHT22;11726;50.122;8.832;2022-07-09T03:21:54;16.10;99.90
23114;DHT22;11726;50.122;8.832;2022-07-09T03:24:20;15.90;99.90
23114;DHT22;11726;50.122;8.832;2022-07-09T03:26:47;15.80;99.90
23114;DHT22;11726;50.122;8.832;2022-07-09T03:29:13;15.90;99.90
23114;DHT22;11726;50.122;8.832;2022-07-09T03:31:40;16.00;99.90
23114;DHT22;11726;50.122;8.832;2022-07-09T03:34:07;16.10;99.90
23114;DHT22;11726;50.122;8.832;2022-07-09T03:36:33;16.00;99.90
23114;DHT22;11726;50.122;8.832;2022-07-09T03:39:01;16.10;99.90
23114;DHT22;11726;50.122;8.832;2022-07-09T03:41:28;16.20;99.90
23114;DHT22;11726;50.122;8.832;2022-07-09T03:43:55;16.20;99.90
23114;DHT22;11726;50.122;8.832;2022-07-09T03:46:21;16.20;99.90
23114;DHT22;11726;50.122;8.832;2022-07-09T03:48:50;16.20;99.90
23114;DHT22;11726;50.122;8.832;2022-07-09T03:51:16;16.20;99.90
23114;DHT22;11726;50.122;8.832;2022-07-09T03:53:43;16.20;99.90
23114;DHT22;11726;50.122;8.832;2022-07-09T03:56:10;16.20;99.90
23114;DHT22;11726;50.122;8.832;2022-07-09T03:58:36;16.10;99.90
23114;DHT22;11726;50.122;8.832;2022-07-09T04:01:04;15.90;99.90
23114;DHT22;11726;50.122;8.832;2022-07-09T04:03:31;16.00;99.90
23114;DHT22;11726;50.122;8.832;2022-07-09T04:05:57;16.10;99.90
23114;DHT22;11726;50.122;8.832;2022-07-09T04:08:24;16.10;99.90
23114;DHT22;11726;50.122;8.832;2022-07-09T04:10:50;16.10;99.90
23114;DHT22;11726;50.122;8.832;2022-07-09T04:13:17;16.20;99.90
23114;DHT22;11726;50.122;8.832;2022-07-09T04:15:44;16.10;99.90
23114;DHT22;11726;50.122;8.832;2022-07-09T04:18:14;16.10;99.90
23114;DHT22;11726;50.122;8.832;2022-07-09T04:20:42;16.10;99.90
23114;DHT22;11726;50.122;8.832;2022-07-09T04:23:08;16.30;99.90
23114;DHT22;11726;50.122;8.832;2022-07-09T04:25:35;16.30;99.90
23114;DHT22;11726;50.122;8.832;2022-07-09T04:28:02;16.30;99.90
23114;DHT22;11726;50.122;8.832;2022-07-09T04:30:29;16.30;99.90
23114;DHT22;11726;50.122;8.832;2022-07-09T04:32:55;16.30;99.90
23114;DHT22;11726;50.122;8.832;2022-07-09T04:35:22;16.40;99.90
23114;DHT22;11726;50.122;8.832;2022-07-09T04:37:48;16.40;99.90
23114;DHT22;11726;50.122;8.832;2022-07-09T04:40:15;16.40;99.90
23114;DHT22;11726;50.122;8.832;2022-07-09T04:42:42;16.40;99.90
23114;DHT22;11726;50.122;8.832;2022-07-09T04:45:09;16.60;99.90
23114;DHT22;11726;50.122;8.832;2022-07-09T04:47:35;16.70;99.90
23114;DHT22;11726;50.122;8.832;2022-07-09T04:50:02;16.60;99.90
23114;DHT22;11726;50.122;8.832;2022-07-09T04:52:30;16.60;99.90
23114;DHT22;11726;50.122;8.832;2022-07-09T04:54:57;16.60;99.90
23114;DHT22;11726;50.122;8.832;2022-07-09T04:57:23;16.70;99.90
23114;DHT22;11726;50.122;8.832;2022-07-09T04:59:50;16.80;99.90
23114;DHT22;11726;50.122;8.832;2022-07-09T05:02:17;16.90;99.90
23114;DHT22;11726;50.122;8.832;2022-07-09T05:04:43;17.00;99.90
23114;DHT22;11726;50.122;8.832;2022-07-09T05:07:10;17.00;99.90
23114;DHT22;11726;50.122;8.832;2022-07-09T05:09:37;17.00;99.90
23114;DHT22;11726;50.122;8.832;2022-07-09T05:12:04;17.10;99.90
23114;DHT22;11726;50.122;8.832;2022-07-09T05:14:30;17.30;99.90
23114;DHT22;11726;50.122;8.832;2022-07-09T05:16:57;17.40;99.90
23114;DHT22;11726;50.122;8.832;2022-07-09T05:19:24;17.30;99.90
23114;DHT22;11726;50.122;8.832;2022-07-09T05:21:50;17.40;99.90
23114;DHT22;11726;50.122;8.832;2022-07-09T05:24:17;17.30;99.90
23114;DHT22;11726;50.122;8.832;2022-07-09T05:26:44;17.40;99.90
23114;DHT22;11726;50.122;8.832;2022-07-09T05:29:10;17.50;99.90
23114;DHT22;11726;50.122;8.832;2022-07-09T05:31:37;17.40;99.90
23114;DHT22;11726;50.122;8.832;2022-07-09T05:34:03;17.40;99.90
23114;DHT22;11726;50.122;8.832;2022-07-09T05:36:32;17.50;99.90
23114;DHT22;11726;50.122;8.832;2022-07-09T05:38:59;17.50;99.90
23114;DHT22;11726;50.122;8.832;2022-07-09T05:41:27;17.50;99.90
23114;DHT22;11726;50.122;8.832;2022-07-09T05:43:54;17.50;99.90
23114;DHT22;11726;50.122;8.832;2022-07-09T05:46:20;17.60;99.90
23114;DHT22;11726;50.122;8.832;2022-07-09T05:48:47;17.60;99.90
23114;DHT22;11726;50.122;8.832;2022-07-09T05:51:14;17.70;99.90
23114;DHT22;11726;50.122;8.832;2022-07-09T05:53:41;17.80;99.90
23114;DHT22;11726;50.122;8.832;2022-07-09T05:56:07;17.80;99.90
23114;DHT22;11726;50.122;8.832;2022-07-09T05:58:34;17.80;99.90
23114;DHT22;11726;50.122;8.832;2022-07-09T06:01:02;17.90;99.90
23114;DHT22;11726;50.122;8.832;2022-07-09T06:03:29;18.00;99.90
23114;DHT22;11726;50.122;8.832;2022-07-09T06:05:55;17.90;99.90
23114;DHT22;11726;50.122;8.832;2022-07-09T06:08:22;17.90;99.90
23114;DHT22;11726;50.122;8.832;2022-07-09T06:10:50;18.10;99.90
23114;DHT22;11726;50.122;8.832;2022-07-09T06:13:17;18.30;99.90
23114;DHT22;11726;50.122;8.832;2022-07-09T06:15:44;18.50;99.90
23114;DHT22;11726;50.122;8.832;2022-07-09T06:18:11;18.50;99.90
23114;DHT22;11726;50.122;8.832;2022-07-09T06:20:37;18.50;99.90
23114;DHT22;11726;50.122;8.832;2022-07-09T06:23:06;18.60;99.90
23114;DHT22;11726;50.122;8.832;2022-07-09T06:25:33;18.70;99.90
23114;DHT22;11726;50.122;8.832;2022-07-09T06:28:00;18.70;99.90
23114;DHT22;11726;50.122;8.832;2022-07-09T06:30:26;18.90;99.90
23114;DHT22;11726;50.122;8.832;2022-07-09T06:32:53;19.00;99.90
23114;DHT22;11726;50.122;8.832;2022-07-09T06:35:20;19.10;99.90
23114;DHT22;11726;50.122;8.832;2022-07-09T06:37:46;19.20;99.90
23114;DHT22;11726;50.122;8.832;2022-07-09T06:40:13;19.30;99.90
23114;DHT22;11726;50.122;8.832;2022-07-09T06:42:40;19.40;99.90
23114;DHT22;11726;50.122;8.832;2022-07-09T06:45:07;19.60;99.90
23114;DHT22;11726;50.122;8.832;2022-07-09T06:47:35;19.70;99.90
23114;DHT22;11726;50.122;8.832;2022-07-09T06:50:09;19.70;99.90
23114;DHT22;11726;50.122;8.832;2022-07-09T06:52:36;20.00;99.90
23114;DHT22;11726;50.122;8.832;2022-07-09T06:55:03;20.20;99.90
23114;DHT22;11726;50.122;8.832;2022-07-09T06:57:29;20.10;99.90
23114;DHT22;11726;50.122;8.832;2022-07-09T06:59:57;20.20;99.90
23114;DHT22;11726;50.122;8.832;2022-07-09T07:02:23;20.40;99.90
23114;DHT22;11726;50.122;8.832;2022-07-09T07:04:50;20.40;99.90
23114;DHT22;11726;50.122;8.832;2022-07-09T07:07:17;20.40;99.90
23114;DHT22;11726;50.122;8.832;2022-07-09T07:09:43;20.40;99.90
23114;DHT22;11726;50.122;8.832;2022-07-09T07:12:10;20.40;99.90
23114;DHT22;11726;50.122;8.832;2022-07-09T07:14:36;20.50;99.90
23114;DHT22;11726;50.122;8.832;2022-07-09T07:17:03;20.50;99.90
23114;DHT22;11726;50.122;8.832;2022-07-09T07:19:30;20.30;99.90
23114;DHT22;11726;50.122;8.832;2022-07-09T07:21:57;20.40;99.90
23114;DHT22;11726;50.122;8.832;2022-07-09T07:24:23;20.40;99.90
23114;DHT22;11726;50.122;8.832;2022-07-09T07:26:50;20.50;99.90
23114;DHT22;11726;50.122;8.832;2022-07-09T07:29:16;20.70;99.90
23114;DHT22;11726;50.122;8.832;2022-07-09T07:31:43;20.90;99.90
23114;DHT22;11726;50.122;8.832;2022-07-09T07:34:10;21.20;99.90
23114;DHT22;11726;50.122;8.832;2022-07-09T07:36:36;21.30;99.90
23114;DHT22;11726;50.122;8.832;2022-07-09T07:39:03;21.40;99.90
23114;DHT22;11726;50.122;8.832;2022-07-09T07:41:30;21.40;99.90
23114;DHT22;11726;50.122;8.832;2022-07-09T07:43:56;21.50;99.90
23114;DHT22;11726;50.122;8.832;2022-07-09T07:46:23;21.60;99.90
23114;DHT22;11726;50.122;8.832;2022-07-09T07:48:50;21.60;99.90
23114;DHT22;11726;50.122;8.832;2022-07-09T07:51:17;21.70;99.90
23114;DHT22;11726;50.122;8.832;2022-07-09T07:53:43;21.90;99.90
23114;DHT22;11726;50.122;8.832;2022-07-09T07:56:10;22.10;99.90
23114;DHT22;11726;50.122;8.832;2022-07-09T07:58:37;22.10;99.90
23114;DHT22;11726;50.122;8.832;2022-07-09T08:01:04;22.00;99.90
23114;DHT22;11726;50.122;8.832;2022-07-09T08:03:30;22.00;99.90
23114;DHT22;11726;50.122;8.832;2022-07-09T08:05:59;22.00;99.90
23114;DHT22;11726;50.122;8.832;2022-07-09T08:08:26;22.00;99.90
23114;DHT22;11726;50.122;8.832;2022-07-09T08:10:53;21.80;99.90
23114;DHT22;11726;50.122;8.832;2022-07-09T08:13:19;21.80;99.90
23114;DHT22;11726;50.122;8.832;2022-07-09T08:15:46;21.90;99.90
23114;DHT22;11726;50.122;8.832;2022-07-09T08:18:13;21.80;99.90
23114;DHT22;11726;50.122;8.832;2022-07-09T08:20:41;21.80;99.90
23114;DHT22;11726;50.122;8.832;2022-07-09T08:23:08;21.90;99.90
23114;DHT22;11726;50.122;8.832;2022-07-09T08:25:35;22.00;99.90
23114;DHT22;11726;50.122;8.832;2022-07-09T08:28:02;22.00;99.90
23114;DHT22;11726;50.122;8.832;2022-07-09T08:30:29;22.10;99.90
23114;DHT22;11726;50.122;8.832;2022-07-09T08:32:56;22.30;99.90
23114;DHT22;11726;50.122;8.832;2022-07-09T08:35:22;22.60;99.90
23114;DHT22;11726;50.122;8.832;2022-07-09T08:37:49;22.90;99.90
23114;DHT22;11726;50.122;8.832;2022-07-09T08:40:16;22.90;99.90
23114;DHT22;11726;50.122;8.832;2022-07-09T08:42:42;22.90;99.90
23114;DHT22;11726;50.122;8.832;2022-07-09T08:45:11;22.90;99.90
23114;DHT22;11726;50.122;8.832;2022-07-09T08:47:42;22.70;99.90
23114;DHT22;11726;50.122;8.832;2022-07-09T08:50:09;22.40;99.90
23114;DHT22;11726;50.122;8.832;2022-07-09T08:52:39;22.30;99.90
23114;DHT22;11726;50.122;8.832;2022-07-09T08:55:07;22.20;99.90
23114;DHT22;11726;50.122;8.832;2022-07-09T08:57:34;22.20;99.90
23114;DHT22;11726;50.122;8.832;2022-07-09T09:00:01;22.20;99.90
23114;DHT22;11726;50.122;8.832;2022-07-09T09:02:35;22.20;99.90
23114;DHT22;11726;50.122;8.832;2022-07-09T09:05:16;22.50;99.90
23114;DHT22;11726;50.122;8.832;2022-07-09T09:07:42;22.70;99.90
23114;DHT22;11726;50.122;8.832;2022-07-09T09:10:20;23.00;99.90
23114;DHT22;11726;50.122;8.832;2022-07-09T09:12:48;23.20;99.90
23114;DHT22;11726;50.122;8.832;2022-07-09T09:15:18;23.30;99.90
23114;DHT22;11726;50.122;8.832;2022-07-09T09:17:48;23.50;99.90
23114;DHT22;11726;50.122;8.832;2022-07-09T09:20:15;23.60;99.50
23114;DHT22;11726;50.122;8.832;2022-07-09T09:22:51;23.60;99.60
23114;DHT22;11726;50.122;8.832;2022-07-09T09:25:21;23.40;99.90
23114;DHT22;11726;50.122;8.832;2022-07-09T09:27:55;23.40;99.90
23114;DHT22;11726;50.122;8.832;2022-07-09T09:30:23;23.70;99.70
23114;DHT22;11726;50.122;8.832;2022-07-09T09:33:03;23.70;99.00
23114;DHT22;11726;50.122;8.832;2022-07-09T09:35:33;23.80;98.30
23114;DHT22;11726;50.122;8.832;2022-07-09T09:38:01;23.70;98.10
23114;DHT22;11726;50.122;8.832;2022-07-09T09:40:28;23.80;98.60
23114;DHT22;11726;50.122;8.832;2022-07-09T09:42:56;23.70;98.20
23114;DHT22;11726;50.122;8.832;2022-07-09T09:45:26;23.50;98.20
23114;DHT22;11726;50.122;8.832;2022-07-09T09:47:53;23.80;98.00
23114;DHT22;11726;50.122;8.832;2022-07-09T09:50:22;24.00;96.70
23114;DHT22;11726;50.122;8.832;2022-07-09T09:52:51;23.90;97.00
23114;DHT22;11726;50.122;8.832;2022-07-09T09:55:19;24.10;98.00
23114;DHT22;11726;50.122;8.832;2022-07-09T09:57:46;24.10;98.50
23114;DHT22;11726;50.122;8.832;2022-07-09T10:00:15;24.30;98.70
23114;DHT22;11726;50.122;8.832;2022-07-09T10:02:44;24.40;97.80
23114;DHT22;11726;50.122;8.832;2022-07-09T10:05:12;24.40;95.80
23114;DHT22;11726;50.122;8.832;2022-07-09T10:07:39;24.30;96.20
23114;DHT22;11726;50.122;8.832;2022-07-09T10:10:06;24.30;95.90
23114;DHT22;11726;50.122;8.832;2022-07-09T10:12:40;24.20;96.80
23114;DHT22;11726;50.122;8.832;2022-07-09T10:15:21;24.30;95.90
23114;DHT22;11726;50.122;8.832;2022-07-09T10:17:53;24.50;94.00
23114;DHT22;11726;50.122;8.832;2022-07-09T10:20:33;25.00;93.80
23114;DHT22;11726;50.122;8.832;2022-07-09T10:23:01;24.90;93.70
23114;DHT22;11726;50.122;8.832;2022-07-09T10:25:29;24.80;92.70
23114;DHT22;11726;50.122;8.832;2022-07-09T10:27:56;25.10;92.90
23114;DHT22;11726;50.122;8.832;2022-07-09T10:30:31;25.30;93.10
23114;DHT22;11726;50.122;8.832;2022-07-09T10:33:02;25.40;91.50
23114;DHT22;11726;50.122;8.832;2022-07-09T10:35:29;25.10;92.30
23114;DHT22;11726;50.122;8.832;2022-07-09T10:37:56;24.80;92.60
23114;DHT22;11726;50.122;8.832;2022-07-09T10:40:23;24.70;92.40
23114;DHT22;11726;50.122;8.832;2022-07-09T10:42:59;25.00;91.30
23114;DHT22;11726;50.122;8.832;2022-07-09T10:45:42;25.50;90.40
23114;DHT22;11726;50.122;8.832;2022-07-09T10:48:13;25.70;90.50
23114;DHT22;11726;50.122;8.832;2022-07-09T10:50:43;25.20;90.60
23114;DHT22;11726;50.122;8.832;2022-07-09T10:53:11;24.90;91.70
23114;DHT22;11726;50.122;8.832;2022-07-09T10:55:42;25.10;92.20
23114;DHT22;11726;50.122;8.832;2022-07-09T10:58:18;25.40;91.60
23114;DHT22;11726;50.122;8.832;2022-07-09T11:00:44;25.70;90.40
23114;DHT22;11726;50.122;8.832;2022-07-09T11:03:27;25.40;90.50
23114;DHT22;11726;50.122;8.832;2022-07-09T11:05:55;25.70;90.50
23114;DHT22;11726;50.122;8.832;2022-07-09T11:08:22;26.00;89.90
23114;DHT22;11726;50.122;8.832;2022-07-09T11:10:49;26.00;89.40
23114;DHT22;11726;50.122;8.832;2022-07-09T11:13:17;25.70;90.00
23114;DHT22;11726;50.122;8.832;2022-07-09T11:15:46;25.40;90.20
23114;DHT22;11726;50.122;8.832;2022-07-09T11:18:13;25.50;90.50
23114;DHT22;11726;50.122;8.832;2022-07-09T11:20:46;25.70;90.60
23114;DHT22;11726;50.122;8.832;2022-07-09T11:23:14;25.70;90.10
23114;DHT22;11726;50.122;8.832;2022-07-09T11:25:41;25.50;91.30
23114;DHT22;11726;50.122;8.832;2022-07-09T11:28:08;25.70;87.20
23114;DHT22;11726;50.122;8.832;2022-07-09T11:30:45;26.10;86.60
23114;DHT22;11726;50.122;8.832;2022-07-09T11:33:14;26.40;83.90
23114;DHT22;11726;50.122;8.832;2022-07-09T11:35:43;26.40;86.20
23114;DHT22;11726;50.122;8.832;2022-07-09T11:38:10;26.60;87.20
23114;DHT22;11726;50.122;8.832;2022-07-09T11:40:37;26.50;82.10
23114;DHT22;11726;50.122;8.832;2022-07-09T11:43:15;26.30;81.10
23114;DHT22;11726;50.122;8.832;2022-07-09T11:45:52;26.70;78.20
23114;DHT22;11726;50.122;8.832;2022-07-09T11:48:18;26.60;77.80
23114;DHT22;11726;50.122;8.832;2022-07-09T11:50:46;26.80;81.30
23114;DHT22;11726;50.122;8.832;2022-07-09T11:53:22;27.60;81.10
23114;DHT22;11726;50.122;8.832;2022-07-09T11:55:59;27.30;76.20
23114;DHT22;11726;50.122;8.832;2022-07-09T11:58:27;27.10;78.20
23114;DHT22;11726;50.122;8.832;2022-07-09T12:00:53;26.30;76.40
23114;DHT22;11726;50.122;8.832;2022-07-09T12:03:28;25.90;78.20
23114;DHT22;11726;50.122;8.832;2022-07-09T12:05:57;25.60;79.30
23114;DHT22;11726;50.122;8.832;2022-07-09T12:08:31;25.40;81.80
23114;DHT22;11726;50.122;8.832;2022-07-09T12:10:59;25.40;83.20
23114;DHT22;11726;50.122;8.832;2022-07-09T12:13:26;25.30;85.80
23114;DHT22;11726;50.122;8.832;2022-07-09T12:15:53;25.40;87.00
23114;DHT22;11726;50.122;8.832;2022-07-09T12:18:20;25.50;87.80
23114;DHT22;11726;50.122;8.832;2022-07-09T12:20:46;25.70;89.60
23114;DHT22;11726;50.122;8.832;2022-07-09T12:23:13;25.80;89.00
23114;DHT22;11726;50.122;8.832;2022-07-09T12:25:40;25.70;85.00
23114;DHT22;11726;50.122;8.832;2022-07-09T12:28:07;25.40;86.80
23114;DHT22;11726;50.122;8.832;2022-07-09T12:30:34;25.30;87.40
23114;DHT22;11726;50.122;8.832;2022-07-09T12:33:01;25.30;86.90
23114;DHT22;11726;50.122;8.832;2022-07-09T12:35:27;25.70;86.40
23114;DHT22;11726;50.122;8.832;2022-07-09T12:37:54;26.10;83.90
23114;DHT22;11726;50.122;8.832;2022-07-09T12:40:24;26.30;82.40
23114;DHT22;11726;50.122;8.832;2022-07-09T12:42:50;26.40;78.90
23114;DHT22;11726;50.122;8.832;2022-07-09T12:45:17;26.50;78.30
23114;DHT22;11726;50.122;8.832;2022-07-09T12:47:44;26.30;78.80
23114;DHT22;11726;50.122;8.832;2022-07-09T12:50:10;26.10;76.50
23114;DHT22;11726;50.122;8.832;2022-07-09T12:52:38;26.10;76.00
23114;DHT22;11726;50.122;8.832;2022-07-09T12:55:05;26.50;76.60
23114;DHT22;11726;50.122;8.832;2022-07-09T12:57:32;26.70;77.00
23114;DHT22;11726;50.122;8.832;2022-07-09T12:59:59;27.00;74.60
23114;DHT22;11726;50.122;8.832;2022-07-09T13:02:26;27.20;75.10
23114;DHT22;11726;50.122;8.832;2022-07-09T13:04:53;27.20;74.50
23114;DHT22;11726;50.122;8.832;2022-07-09T13:07:20;26.90;73.10
23114;DHT22;11726;50.122;8.832;2022-07-09T13:09:47;26.90;73.80
23114;DHT22;11726;50.122;8.832;2022-07-09T13:12:14;26.80;72.50
23114;DHT22;11726;50.122;8.832;2022-07-09T13:14:40;27.00;73.00
23114;DHT22;11726;50.122;8.832;2022-07-09T13:17:07;27.40;70.70
23114;DHT22;11726;50.122;8.832;2022-07-09T13:19:54;27.30;68.60
23114;DHT22;11726;50.122;8.832;2022-07-09T13:22:20;27.20;68.40
23114;DHT22;11726;50.122;8.832;2022-07-09T13:24:47;27.30;67.90
23114;DHT22;11726;50.122;8.832;2022-07-09T13:27:13;27.40;70.20
23114;DHT22;11726;50.122;8.832;2022-07-09T13:29:40;27.60;64.50
23114;DHT22;11726;50.122;8.832;2022-07-09T13:32:07;28.00;63.10
23114;DHT22;11726;50.122;8.832;2022-07-09T13:34:34;27.90;62.00
23114;DHT22;11726;50.122;8.832;2022-07-09T13:37:01;27.20;62.60
23114;DHT22;11726;50.122;8.832;2022-07-09T13:39:28;26.80;63.50
23114;DHT22;11726;50.122;8.832;2022-07-09T13:41:54;26.40;62.10
23114;DHT22;11726;50.122;8.832;2022-07-09T13:44:21;26.40;63.60
23114;DHT22;11726;50.122;8.832;2022-07-09T13:46:47;26.30;65.90
23114;DHT22;11726;50.122;8.832;2022-07-09T13:49:14;26.30;67.40
23114;DHT22;11726;50.122;8.832;2022-07-09T13:51:48;26.50;69.10
23114;DHT22;11726;50.122;8.832;2022-07-09T13:54:14;26.20;69.40
23114;DHT22;11726;50.122;8.832;2022-07-09T13:56:41;26.10;70.80
23114;DHT22;11726;50.122;8.832;2022-07-09T13:59:08;26.10;71.60
23114;DHT22;11726;50.122;8.832;2022-07-09T14:01:35;26.00;71.90
23114;DHT22;11726;50.122;8.832;2022-07-09T14:04:01;26.10;72.30
23114;DHT22;11726;50.122;8.832;2022-07-09T14:06:28;26.60;71.10
23114;DHT22;11726;50.122;8.832;2022-07-09T14:09:13;26.50;70.50
23114;DHT22;11726;50.122;8.832;2022-07-09T14:11:42;26.30;71.60
23114;DHT22;11726;50.122;8.832;2022-07-09T14:14:09;26.10;72.70
23114;DHT22;11726;50.122;8.832;2022-07-09T14:16:36;26.20;73.60
23114;DHT22;11726;50.122;8.832;2022-07-09T14:19:02;26.20;72.30
23114;DHT22;11726;50.122;8.832;2022-07-09T14:21:29;26.50;72.60
23114;DHT22;11726;50.122;8.832;2022-07-09T14:23:56;26.70;72.90
23114;DHT22;11726;50.122;8.832;2022-07-09T14:26:23;26.90;70.20
23114;DHT22;11726;50.122;8.832;2022-07-09T14:28:50;27.50;66.50
23114;DHT22;11726;50.122;8.832;2022-07-09T14:31:16;28.00;66.40
23114;DHT22;11726;50.122;8.832;2022-07-09T14:33:43;27.70;66.30
23114;DHT22;11726;50.122;8.832;2022-07-09T14:36:10;27.40;65.50
23114;DHT22;11726;50.122;8.832;2022-07-09T14:38:36;27.50;65.00
23114;DHT22;11726;50.122;8.832;2022-07-09T14:41:04;27.80;64.30
23114;DHT22;11726;50.122;8.832;2022-07-09T14:43:31;28.00;62.50
23114;DHT22;11726;50.122;8.832;2022-07-09T14:45:57;27.60;63.10
23114;DHT22;11726;50.122;8.832;2022-07-09T14:48:24;27.40;61.30
23114;DHT22;11726;50.122;8.832;2022-07-09T14:50:52;27.30;61.40
23114;DHT22;11726;50.122;8.832;2022-07-09T14:53:19;27.20;61.60
23114;DHT22;11726;50.122;8.832;2022-07-09T14:55:45;27.30;62.60
23114;DHT22;11726;50.122;8.832;2022-07-09T14:58:12;27.50;61.50
23114;DHT22;11726;50.122;8.832;2022-07-09T15:00:39;27.50;58.90
23114;DHT22;11726;50.122;8.832;2022-07-09T15:03:05;27.50;57.60
23114;DHT22;11726;50.122;8.832;2022-07-09T15:05:32;28.00;56.20
23114;DHT22;11726;50.122;8.832;2022-07-09T15:07:59;28.30;56.20
23114;DHT22;11726;50.122;8.832;2022-07-09T15:10:26;27.90;56.00
23114;DHT22;11726;50.122;8.832;2022-07-09T15:12:52;27.60;57.10
23114;DHT22;11726;50.122;8.832;2022-07-09T15:15:19;27.20;58.00
23114;DHT22;11726;50.122;8.832;2022-07-09T15:17:45;27.00;59.20
23114;DHT22;11726;50.122;8.832;2022-07-09T15:20:12;26.80;60.30
23114;DHT22;11726;50.122;8.832;2022-07-09T15:22:39;26.70;61.10
23114;DHT22;11726;50.122;8.832;2022-07-09T15:25:06;26.70;61.00
23114;DHT22;11726;50.122;8.832;2022-07-09T15:27:33;26.50;62.30
23114;DHT22;11726;50.122;8.832;2022-07-09T15:30:03;26.30;63.80
23114;DHT22;11726;50.122;8.832;2022-07-09T15:32:30;26.20;64.20